createdAt,value
2018-11-27T00:02:14.714Z,101697.98
2018-11-27T00:04:44.486Z,101706.44
2018-11-27T00:07:33.322Z,101708.77
2018-11-27T00:10:02.895Z,101710.72
2018-11-27T00:12:32.463Z,101721.59
2018-11-27T00:15:02.259Z,101720.17
2018-11-27T00:17:31.819Z,101710.89
2018-11-27T00:20:02.587Z,101715.51
2018-11-27T00:22:32.404Z,101714.84
2018-11-27T00:25:01.991Z,101719.67
2018-11-27T00:27:31.547Z,101718.77
2018-11-27T00:30:01.427Z,101719.24
2018-11-27T00:32:31.006Z,101722.94
2018-11-27T00:35:00.771Z,101719.47
2018-11-27T00:37:30.496Z,101716.23
2018-11-27T00:40:00.074Z,101729.59
2018-11-27T00:42:29.645Z,101726.35
2018-11-27T00:44:59.346Z,101730.95
2018-11-27T00:47:28.910Z,101726.20
2018-11-27T00:49:58.482Z,101732.47
2018-11-27T00:52:28.303Z,101737.45
2018-11-27T00:54:58.770Z,101729.47
2018-11-27T00:57:27.435Z,101733.16
2018-11-27T00:59:57.221Z,101730.98
2018-11-27T01:02:26.797Z,101732.27
2018-11-27T01:04:56.365Z,101737.25
2018-11-27T01:07:26.163Z,101736.19
2018-11-27T01:09:55.855Z,101738.38
2018-11-27T01:12:25.439Z,101739.89
2018-11-27T01:14:55.276Z,101744.27
2018-11-27T01:17:24.890Z,101743.89
2018-11-27T01:19:54.471Z,101749.55
2018-11-27T01:22:24.214Z,101747.36
2018-11-27T01:24:53.777Z,101740.19
2018-11-27T01:27:23.359Z,101737.63
2018-11-27T01:29:53.047Z,101746.08
2018-11-27T01:32:22.619Z,101748.49
2018-11-27T01:34:52.196Z,101747.44
2018-11-27T01:37:22.145Z,101753.17
2018-11-27T01:39:51.723Z,101751.75
2018-11-27T01:42:21.286Z,101754.31
2018-11-27T01:44:51.176Z,101749.79
2018-11-27T01:47:20.735Z,101760.20
2018-11-27T01:49:50.309Z,101756.73
2018-11-27T01:52:38.627Z,101758.02
2018-11-27T01:55:27.836Z,101641.98
2018-11-27T01:58:09.285Z,101764.66
2018-11-27T02:00:38.864Z,101762.84
2018-11-27T02:03:08.437Z,101757.71
2018-11-27T02:05:38.136Z,101763.75
2018-11-27T02:08:07.848Z,101744.45
2018-11-27T02:10:37.422Z,101766.92
2018-11-27T02:13:07.569Z,101766.55
2018-11-27T02:15:56.043Z,101768.95
2018-11-27T02:18:37.610Z,101772.66
2018-11-27T02:21:07.635Z,101778.91
2018-11-27T02:23:37.218Z,101774.92
2018-11-27T02:26:07.118Z,101775.15
2018-11-27T02:28:36.692Z,101786.01
2018-11-27T02:31:06.275Z,101785.86
2018-11-27T02:33:36.246Z,101781.71
2018-11-27T02:36:06.125Z,101784.12
2018-11-27T02:38:35.786Z,101786.16
2018-11-27T02:41:05.685Z,101778.92
2018-11-27T02:43:35.249Z,101667.81
2018-11-27T02:46:04.818Z,101794.76
2018-11-27T02:48:34.709Z,101788.80
2018-11-27T02:51:04.271Z,101792.34
2018-11-27T02:53:34.024Z,101795.88
2018-11-27T02:56:03.711Z,101805.61
2018-11-27T02:58:33.223Z,101803.27
2018-11-27T03:01:02.907Z,101804.62
2018-11-27T03:03:32.489Z,101808.31
2018-11-27T03:06:02.057Z,101807.25
2018-11-27T03:08:31.870Z,101800.16
2018-11-27T03:11:01.590Z,101806.57
2018-11-27T03:13:31.148Z,101807.55
2018-11-27T03:16:00.996Z,101809.80
2018-11-27T03:18:30.672Z,101816.80
2018-11-27T03:21:00.324Z,101813.12
2018-11-27T03:23:29.939Z,101821.48
2018-11-27T03:25:59.670Z,101826.08
2018-11-27T03:28:29.242Z,101827.36
2018-11-27T03:30:58.820Z,101819.14
2018-11-27T03:33:28.656Z,101821.93
2018-11-27T03:35:58.224Z,101825.84
2018-11-27T03:38:27.798Z,101827.72
2018-11-27T03:40:57.583Z,101826.66
2018-11-27T03:43:46.141Z,101827.41
2018-11-27T03:46:16.105Z,101825.82
2018-11-27T03:48:45.658Z,101832.81
2018-11-27T03:51:15.313Z,101834.70
2018-11-27T03:53:45.001Z,101831.30
2018-11-27T03:56:14.568Z,101834.23
2018-11-27T03:58:44.267Z,101831.89
2018-11-27T04:01:14.097Z,101835.05
2018-11-27T04:03:43.714Z,101839.48
2018-11-27T04:06:13.297Z,101838.95
2018-11-27T04:08:43.013Z,101832.02
2018-11-27T04:11:12.598Z,101831.33
2018-11-27T04:13:42.177Z,101833.73
2018-11-27T04:16:12.055Z,101832.14
2018-11-27T04:18:41.623Z,101829.95
2018-11-27T04:21:11.238Z,101839.66
2018-11-27T04:23:41.073Z,101836.95
2018-11-27T04:26:10.647Z,101843.56
2018-11-27T04:28:40.215Z,101834.29
2018-11-27T04:31:10.102Z,101835.26
2018-11-27T04:33:39.696Z,101841.50
2018-11-27T04:36:09.298Z,101845.34
2018-11-27T04:38:39.128Z,101848.05
2018-11-27T04:41:09.680Z,101834.03
2018-11-27T04:43:39.250Z,101849.88
2018-11-27T04:46:09.376Z,101848.38
2018-11-27T04:48:38.948Z,101839.56
2018-11-27T04:51:08.518Z,101841.38
2018-11-27T04:53:38.282Z,101842.28
2018-11-27T04:56:07.859Z,101846.28
2018-11-27T04:58:37.425Z,101847.88
2018-11-27T05:01:07.662Z,101848.25
2018-11-27T05:03:37.236Z,101848.09
2018-11-27T05:06:07.011Z,101837.70
2018-11-27T05:08:36.688Z,101836.95
2018-11-27T05:11:06.260Z,101841.91
2018-11-27T05:13:35.886Z,101841.59
2018-11-27T05:16:06.197Z,101841.28
2018-11-27T05:18:35.762Z,101838.78
2018-11-27T05:21:05.338Z,101843.05
2018-11-27T05:23:35.233Z,101844.39
2018-11-27T05:26:04.811Z,101845.36
2018-11-27T05:28:34.399Z,101847.06
2018-11-27T05:31:23.297Z,101850.43
2018-11-27T05:33:52.884Z,101854.86
2018-11-27T05:36:22.446Z,101857.63
2018-11-27T05:38:52.142Z,101858.54
2018-11-27T05:41:21.722Z,101857.09
2018-11-27T05:43:51.328Z,101861.69
2018-11-27T05:46:21.035Z,101862.59
2018-11-27T05:48:50.597Z,101863.13
2018-11-27T05:51:20.173Z,101869.73
2018-11-27T05:53:49.891Z,101869.58
2018-11-27T05:56:19.462Z,101874.53
2018-11-27T05:58:49.059Z,101870.91
2018-11-27T06:01:18.894Z,101871.13
2018-11-27T06:03:48.471Z,101876.61
2018-11-27T06:06:18.046Z,101875.92
2018-11-27T06:08:47.759Z,101883.80
2018-11-27T06:11:17.319Z,101891.85
2018-11-27T06:13:46.913Z,101896.06
2018-11-27T06:16:16.836Z,101896.81
2018-11-27T06:18:46.425Z,101902.51
2018-11-27T06:21:15.993Z,101903.78
2018-11-27T06:23:45.873Z,101898.34
2018-11-27T06:26:15.436Z,101903.84
2018-11-27T06:28:45.010Z,101907.72
2018-11-27T06:31:14.888Z,101919.23
2018-11-27T06:33:44.599Z,101727.12
2018-11-27T06:36:14.183Z,101913.05
2018-11-27T06:38:43.892Z,101913.42
2018-11-27T06:41:13.455Z,101916.88
2018-11-27T06:43:43.038Z,101913.62
2018-11-27T06:46:13.060Z,101921.14
2018-11-27T06:48:42.634Z,101921.89
2018-11-27T06:51:12.283Z,101921.35
2018-11-27T06:53:41.959Z,101916.45
2018-11-27T06:56:11.535Z,101920.48
2018-11-27T06:58:41.108Z,101921.06
2018-11-27T07:01:10.795Z,101923.09
2018-11-27T07:03:40.367Z,101932.42
2018-11-27T07:06:09.953Z,101933.70
2018-11-27T07:08:39.812Z,101934.44
2018-11-27T07:11:09.391Z,101950.16
2018-11-27T07:13:38.972Z,101952.50
2018-11-27T07:16:08.845Z,101950.85
2018-11-27T07:21:27.925Z,101955.22
2018-11-27T07:23:57.677Z,101967.47
2018-11-27T07:26:27.249Z,101964.92
2018-11-27T07:28:57.050Z,101967.47
2018-11-27T07:31:26.678Z,101973.50
2018-11-27T07:33:56.243Z,101974.41
2018-11-27T07:36:26.085Z,101974.41
2018-11-27T07:38:55.712Z,101978.78
2018-11-27T07:41:25.223Z,101986.61
2018-11-27T07:43:54.927Z,101989.87
2018-11-27T07:46:24.522Z,102001.17
2018-11-27T07:48:54.438Z,102001.92
2018-11-27T07:51:24.236Z,101998.98
2018-11-27T07:53:53.808Z,102001.55
2018-11-27T07:56:23.395Z,102003.73
2018-11-27T07:58:53.250Z,102004.27
2018-11-27T08:01:22.839Z,102006.09
2018-11-27T08:03:52.604Z,102002.78
2018-11-27T08:06:22.340Z,102014.83
2018-11-27T08:09:11.110Z,102022.67
2018-11-27T08:11:41.259Z,102030.67
2018-11-27T08:14:10.866Z,102037.23
2018-11-27T08:16:40.442Z,102034.67
2018-11-27T08:19:10.235Z,102039.59
2018-11-27T08:21:39.848Z,102039.22
2018-11-27T08:24:09.420Z,102047.05
2018-11-27T08:26:39.308Z,102044.30
2018-11-27T08:29:08.956Z,102046.44
2018-11-27T08:31:38.474Z,102047.47
2018-11-27T08:34:08.196Z,102051.96
2018-11-27T08:36:37.782Z,102058.64
2018-11-27T08:39:28.852Z,102066.73
2018-11-27T08:41:58.421Z,102064.25
2018-11-27T08:44:27.987Z,102073.94
2018-11-27T08:46:57.876Z,102056.69
2018-11-27T08:49:27.721Z,102063.89
2018-11-27T08:51:57.293Z,102070.05
2018-11-27T08:54:27.019Z,102068.86
2018-11-27T08:57:15.562Z,102070.41
2018-11-27T08:59:45.469Z,102066.38
2018-11-27T09:02:15.060Z,102077.06
2018-11-27T09:04:44.663Z,102071.66
2018-11-27T09:07:14.371Z,102077.30
2018-11-27T09:09:43.943Z,102076.30
2018-11-27T09:12:13.524Z,102072.69
2018-11-27T09:14:43.215Z,102074.95
2018-11-27T09:17:12.792Z,102074.07
2018-11-27T09:19:42.549Z,102083.11
2018-11-27T09:22:12.832Z,102079.86
2018-11-27T09:24:41.929Z,102082.02
2018-11-27T09:27:11.518Z,102087.94
2018-11-27T09:29:41.398Z,102092.15
2018-11-27T09:32:10.987Z,102084.31
2018-11-27T09:34:40.626Z,102093.45
2018-11-27T09:37:29.436Z,102092.95
2018-11-27T09:39:59.031Z,102089.78
2018-11-27T09:42:28.665Z,102093.83
2018-11-27T09:44:58.667Z,102096.11
2018-11-27T09:47:28.323Z,102099.18
2018-11-27T09:49:57.892Z,102099.97
2018-11-27T09:52:28.208Z,102105.63
2018-11-27T09:54:57.783Z,102109.98
2018-11-27T09:57:27.345Z,102107.55
2018-11-27T09:59:57.161Z,102111.23
2018-11-27T10:02:26.767Z,102111.31
2018-11-27T10:04:56.326Z,102118.61
2018-11-27T10:07:26.156Z,102120.38
2018-11-27T10:09:55.722Z,102121.33
2018-11-27T10:12:44.345Z,102115.95
2018-11-27T10:15:25.776Z,102119.45
2018-11-27T10:18:14.448Z,102124.73
2018-11-27T10:20:44.356Z,102134.91
2018-11-27T10:23:15.201Z,102128.48
2018-11-27T10:25:44.840Z,102140.23
2018-11-27T10:28:14.396Z,102138.81
2018-11-27T10:30:44.090Z,102137.78
2018-11-27T10:33:13.909Z,102141.86
2018-11-27T10:35:45.251Z,102142.38
2018-11-27T10:38:14.934Z,102144.23
2018-11-27T10:40:44.718Z,102146.42
2018-11-27T10:43:19.509Z,102141.65
2018-11-27T10:45:44.129Z,102143.05
2018-11-27T10:48:13.730Z,102152.52
2018-11-27T10:50:43.390Z,102153.48
2018-11-27T10:53:13.818Z,102163.19
2018-11-27T10:55:43.434Z,102155.47
2018-11-27T10:58:13.286Z,102151.37
2018-11-27T11:01:20.669Z,102156.52
2018-11-27T11:03:50.466Z,102159.52
2018-11-27T11:06:20.044Z,102163.13
2018-11-27T11:08:49.814Z,102166.64
2018-11-27T11:11:19.825Z,102172.34
2018-11-27T11:13:49.405Z,102172.67
2018-11-27T11:16:19.012Z,102176.84
2018-11-27T11:18:49.007Z,102173.30
2018-11-27T11:21:18.594Z,102177.92
2018-11-27T11:23:48.782Z,102174.30
2018-11-27T11:26:18.359Z,102174.91
2018-11-27T11:28:47.936Z,102181.72
2018-11-27T11:31:18.015Z,102181.56
2018-11-27T11:33:47.579Z,102180.81
2018-11-27T11:36:17.149Z,102188.68
2018-11-27T11:38:46.848Z,102187.16
2018-11-27T11:41:16.546Z,102186.70
2018-11-27T11:43:46.073Z,102184.80
2018-11-27T11:46:15.770Z,102194.92
2018-11-27T11:48:45.349Z,102196.03
2018-11-27T11:51:15.320Z,102204.70
2018-11-27T11:53:45.194Z,102205.69
2018-11-27T11:56:15.032Z,102212.39
2018-11-27T11:58:44.591Z,102216.35
2018-11-27T12:01:14.829Z,102218.48
2018-11-27T12:03:44.402Z,102221.21
2018-11-27T12:06:14.120Z,102222.02
2018-11-27T12:08:43.742Z,102229.76
2018-11-27T12:11:32.247Z,102230.00
2018-11-27T12:14:01.862Z,102131.72
2018-11-27T12:16:50.418Z,102232.34
2018-11-27T12:19:20.026Z,102233.93
2018-11-27T12:21:49.583Z,102233.97
2018-11-27T12:24:19.147Z,102229.84
2018-11-27T12:26:48.755Z,102236.44
2018-11-27T12:29:18.369Z,102233.86
2018-11-27T12:31:47.959Z,102233.20
2018-11-27T12:34:17.588Z,102242.64
2018-11-27T12:36:47.172Z,102247.14
2018-11-27T12:39:16.747Z,102249.53
2018-11-27T12:41:46.441Z,102250.63
2018-11-27T12:44:16.006Z,102254.42
2018-11-27T12:46:45.579Z,102255.02
2018-11-27T12:49:34.220Z,102260.09
2018-11-27T12:52:03.761Z,102263.59
2018-11-27T12:54:33.348Z,102266.25
2018-11-27T12:57:03.529Z,102270.37
2018-11-27T12:59:33.144Z,102277.86
2018-11-27T13:02:02.948Z,102276.20
2018-11-27T13:04:32.592Z,102278.30
2018-11-27T13:07:02.162Z,102287.33
2018-11-27T13:09:31.768Z,102281.02
2018-11-27T13:12:01.659Z,102283.06
2018-11-27T13:14:31.274Z,102293.88
2018-11-27T13:17:00.830Z,102289.89
2018-11-27T13:19:30.439Z,102291.44
2018-11-27T13:22:00.009Z,102296.76
2018-11-27T13:24:29.623Z,102301.55
2018-11-27T13:26:59.228Z,102310.19
2018-11-27T13:29:29.069Z,102317.69
2018-11-27T13:31:58.750Z,102311.64
2018-11-27T13:34:28.363Z,102321.95
2018-11-27T13:36:57.942Z,102324.14
2018-11-27T13:39:46.527Z,102330.88
2018-11-27T13:42:27.362Z,102335.41
2018-11-27T13:44:57.089Z,102334.27
2018-11-27T13:52:59.663Z,102338.70
2018-11-27T13:55:29.286Z,102344.36
2018-11-27T13:57:58.869Z,102346.84
2018-11-27T14:00:28.496Z,102348.41
2018-11-27T14:03:16.889Z,102351.48
2018-11-27T14:05:46.508Z,102358.58
2018-11-27T14:08:34.729Z,102354.09
2018-11-27T14:11:04.360Z,102362.46
2018-11-27T14:13:33.938Z,102366.97
2018-11-27T14:16:03.509Z,102366.88
2018-11-27T14:18:33.163Z,102373.19
2018-11-27T14:21:02.755Z,102377.16
2018-11-27T14:23:32.335Z,102379.25
2018-11-27T14:26:01.956Z,102361.38
2018-11-27T14:28:31.522Z,102387.44
2018-11-27T14:31:01.088Z,102394.12
2018-11-27T14:33:30.719Z,102390.58
2018-11-27T14:36:00.305Z,102391.38
2018-11-27T14:38:29.886Z,102272.74
2018-11-27T14:40:59.500Z,102396.99
2018-11-27T14:43:29.077Z,102400.89
2018-11-27T14:45:58.642Z,102405.86
2018-11-27T14:48:28.277Z,102411.95
2018-11-27T14:50:57.844Z,102410.56
2018-11-27T14:53:27.426Z,102420.13
2018-11-27T14:55:59.233Z,102413.75
2018-11-27T14:58:28.808Z,102420.38
2018-11-27T15:00:58.385Z,102416.20
2018-11-27T15:03:28.231Z,102428.70
2018-11-27T15:05:57.790Z,102429.83
2018-11-27T15:08:46.293Z,102435.16
2018-11-27T15:11:15.986Z,102438.15
2018-11-27T15:13:45.552Z,102444.23
2018-11-27T15:16:15.160Z,102444.06
2018-11-27T15:18:44.790Z,102443.73
2018-11-27T15:21:14.360Z,102453.30
2018-11-27T15:23:43.994Z,102448.58
2018-11-27T15:26:13.582Z,102452.09
2018-11-27T15:28:43.153Z,102451.76
2018-11-27T15:31:12.780Z,102448.12
2018-11-27T15:33:42.369Z,102449.98
2018-11-27T15:36:11.940Z,102445.05
2018-11-27T15:38:41.576Z,102456.59
2018-11-27T15:41:11.141Z,102455.69
2018-11-27T15:43:40.724Z,102463.38
2018-11-27T15:46:10.352Z,102460.81
2018-11-27T15:48:39.930Z,102462.47
2018-11-27T15:51:09.515Z,102462.47
2018-11-27T15:53:39.154Z,102455.35
2018-11-27T15:56:08.727Z,102464.90
2018-11-27T15:58:38.626Z,102462.58
2018-11-27T16:03:43.982Z,102376.90
2018-11-27T16:08:48.482Z,102463.59
2018-11-27T16:11:18.091Z,102462.88
2018-11-27T16:13:49.141Z,102456.52
2018-11-27T16:16:17.318Z,102458.37
2018-11-27T16:18:46.991Z,102456.75
2018-11-27T16:21:16.600Z,102462.81
2018-11-27T16:23:46.172Z,102472.53
2018-11-27T16:26:15.796Z,102476.75
2018-11-27T16:28:45.429Z,102481.70
2018-11-27T16:31:15.066Z,102479.70
2018-11-27T16:33:44.680Z,102490.53
2018-11-27T16:36:14.259Z,102497.14
2018-11-27T16:38:43.836Z,102498.62
2018-11-27T16:41:13.451Z,102498.28
2018-11-27T16:43:43.027Z,102493.34
2018-11-27T16:46:12.596Z,102492.64
2018-11-27T16:48:42.288Z,102497.77
2018-11-27T16:51:11.791Z,102507.47
2018-11-27T16:53:41.350Z,102502.17
2018-11-27T16:56:10.962Z,102506.22
2018-11-27T16:58:40.566Z,102484.72
2018-11-27T17:01:10.220Z,102503.11
2018-11-27T17:03:39.855Z,102504.39
2018-11-27T17:06:09.430Z,102501.66
2018-11-27T17:08:39.001Z,102505.16
2018-11-27T17:11:08.632Z,102505.73
2018-11-27T17:13:38.208Z,102502.99
2018-11-27T17:16:07.820Z,102511.25
2018-11-27T17:18:37.430Z,102509.42
2018-11-27T17:21:07.075Z,102507.23
2018-11-27T17:23:36.670Z,102507.63
2018-11-27T17:26:06.432Z,102508.19
2018-11-27T17:28:36.086Z,102504.73
2018-11-27T17:31:26.963Z,102504.56
2018-11-27T17:34:08.499Z,102509.52
2018-11-27T17:36:38.878Z,102508.06
2018-11-27T17:39:12.262Z,102517.05
2018-11-27T17:41:41.867Z,102513.40
2018-11-27T17:44:30.464Z,102512.13
2018-11-27T17:47:00.045Z,102510.49
2018-11-27T17:49:29.664Z,102515.63
2018-11-27T17:51:59.343Z,102511.98
2018-11-27T17:54:28.958Z,102522.42
2018-11-27T17:56:58.577Z,102519.86
2018-11-27T17:59:28.212Z,102521.87
2018-11-27T18:02:16.830Z,102527.37
2018-11-27T18:04:46.509Z,102531.40
2018-11-27T18:07:16.113Z,102534.87
2018-11-27T18:09:45.728Z,102540.19
2018-11-27T18:12:15.370Z,102543.66
2018-11-27T18:14:44.938Z,102540.38
2018-11-27T18:17:14.725Z,102541.48
2018-11-27T18:19:44.345Z,102542.41
2018-11-27T18:22:13.954Z,102544.25
2018-11-27T18:24:43.559Z,102538.41
2018-11-27T18:27:13.234Z,102538.60
2018-11-27T18:30:01.771Z,102547.20
2018-11-27T18:32:50.183Z,102551.97
2018-11-27T18:35:23.447Z,102558.75
2018-11-27T18:37:53.460Z,102564.97
2018-11-27T18:40:42.139Z,102566.44
2018-11-27T18:43:30.515Z,102569.36
2018-11-27T18:46:00.204Z,102573.21
2018-11-27T18:48:29.777Z,102576.50
2018-11-27T18:50:59.464Z,102571.75
2018-11-27T18:53:29.074Z,102574.31
2018-11-27T18:55:58.771Z,102575.41
2018-11-27T18:58:28.456Z,102573.41
2018-11-27T19:00:58.052Z,102573.59
2018-11-27T19:03:27.690Z,102578.72
2018-11-27T19:05:57.262Z,102580.92
2018-11-27T19:08:45.807Z,102583.66
2018-11-27T19:11:15.749Z,102587.50
2018-11-27T19:13:45.385Z,102589.15
2018-11-27T19:16:15.066Z,102597.19
2018-11-27T19:18:44.656Z,102603.58
2018-11-27T19:21:14.337Z,102606.52
2018-11-27T19:23:44.035Z,102609.44
2018-11-27T19:26:13.642Z,102607.80
2018-11-27T19:28:43.327Z,102617.48
2018-11-27T19:31:13.126Z,102617.67
2018-11-27T19:34:01.462Z,102624.98
2018-11-27T19:36:31.170Z,102629.91
2018-11-27T19:39:00.821Z,102631.92
2018-11-27T19:41:30.404Z,102638.86
2018-11-27T19:44:00.034Z,102641.23
2018-11-27T19:46:29.599Z,102640.14
2018-11-27T19:48:59.176Z,102646.17
2018-11-27T19:51:28.842Z,102663.34
2018-11-27T19:53:59.343Z,102662.98
2018-11-27T19:56:47.864Z,102667.00
2018-11-27T19:59:17.625Z,102675.22
2018-11-27T20:01:47.220Z,102669.01
2018-11-27T20:04:16.822Z,102678.14
2018-11-27T20:06:46.409Z,102677.78
2018-11-27T20:09:15.982Z,102679.05
2018-11-27T20:11:45.637Z,102676.68
2018-11-27T20:14:22.701Z,102682.34
2018-11-27T20:16:54.567Z,102684.91
2018-11-27T20:19:24.141Z,102659.18
2018-11-27T20:21:53.742Z,102689.29
2018-11-27T20:24:23.363Z,102686.00
2018-11-27T20:26:52.943Z,102685.45
2018-11-27T20:29:22.511Z,102685.45
2018-11-27T20:31:52.138Z,102686.73
2018-11-27T20:34:21.894Z,102688.38
2018-11-27T20:36:51.540Z,102691.84
2018-11-27T20:39:21.104Z,102699.73
2018-11-27T20:41:50.668Z,102700.46
2018-11-27T20:44:38.899Z,102702.66
2018-11-27T20:47:08.462Z,102720.91
2018-11-27T20:49:38.089Z,102715.25
2018-11-27T20:52:07.795Z,102709.22
2018-11-27T20:54:37.375Z,102720.55
2018-11-27T20:57:06.958Z,102726.39
2018-11-27T20:59:36.578Z,102733.70
2018-11-27T21:02:06.186Z,102731.52
2018-11-27T21:04:35.762Z,102733.52
2018-11-27T21:07:05.399Z,102736.80
2018-11-27T21:09:34.983Z,102731.32
2018-11-27T21:12:04.644Z,102733.88
2018-11-27T21:14:53.072Z,102734.80
2018-11-27T21:17:22.603Z,102741.92
2018-11-27T21:20:10.890Z,102742.65
2018-11-27T21:22:51.870Z,102742.83
2018-11-27T21:25:40.485Z,102745.92
2018-11-27T21:28:29.085Z,102745.19
2018-11-27T21:30:58.796Z,102743.91
2018-11-27T21:33:28.389Z,102746.83
2018-11-27T21:35:58.195Z,102747.56
2018-11-27T21:38:46.759Z,102620.58
2018-11-27T21:41:34.972Z,102751.39
2018-11-27T21:44:04.604Z,102755.42
2018-11-27T21:46:34.217Z,102755.61
2018-11-27T21:49:03.793Z,102759.08
2018-11-27T21:51:33.442Z,102754.33
2018-11-27T21:54:03.045Z,102757.80
2018-11-27T21:56:32.631Z,102771.12
2018-11-27T21:59:02.234Z,102771.50
2018-11-27T22:01:31.839Z,102771.31
2018-11-27T22:04:01.415Z,102770.03
2018-11-27T22:06:31.015Z,102767.83
2018-11-27T22:09:00.585Z,102779.89
2018-11-27T22:11:30.165Z,102779.88
2018-11-27T22:13:59.794Z,102786.81
2018-11-27T22:16:29.440Z,102785.70
2018-11-27T22:18:59.035Z,102788.27
2018-11-27T22:21:28.783Z,102786.98
2018-11-27T22:24:17.054Z,102792.64
2018-11-27T22:26:58.279Z,102791.37
2018-11-27T22:29:27.913Z,102799.21
2018-11-27T22:31:57.426Z,102799.75
2018-11-27T22:34:27.063Z,102805.41
2018-11-27T22:36:57.147Z,102801.56
2018-11-27T22:39:26.721Z,102798.81
2018-11-27T22:41:56.395Z,102799.91
2018-11-27T22:44:25.968Z,102804.66
2018-11-27T22:46:55.597Z,102804.09
2018-11-27T22:49:25.225Z,102811.77
2018-11-27T22:51:54.834Z,102807.20
2018-11-27T22:54:24.749Z,102808.47
2018-11-27T22:57:13.056Z,102806.83
2018-11-27T22:59:42.619Z,102811.39
2018-11-27T23:02:12.241Z,102807.91
2018-11-27T23:04:41.841Z,102812.10
2018-11-27T23:07:11.402Z,102818.30
2018-11-27T23:09:40.979Z,102815.19
2018-11-27T23:12:10.666Z,102822.52
2018-11-27T23:14:40.241Z,102818.33
2018-11-27T23:17:09.815Z,102814.50
2018-11-27T23:19:39.453Z,102818.33
2018-11-27T23:22:09.022Z,102815.59
2018-11-27T23:24:38.693Z,102817.78
2018-11-27T23:27:08.316Z,102824.17
2018-11-27T23:29:37.915Z,102821.23
2018-11-27T23:32:07.483Z,102828.71
2018-11-27T23:34:37.100Z,102821.22
2018-11-27T23:37:25.419Z,102823.77
2018-11-27T23:39:55.161Z,102828.50
2018-11-27T23:42:24.724Z,102820.46
2018-11-27T23:44:54.373Z,102818.27
2018-11-27T23:47:24.012Z,102820.63
2018-11-27T23:49:54.309Z,102813.50
2018-11-27T23:52:23.901Z,102818.06
2018-11-27T23:54:53.526Z,102819.70
2018-11-27T23:57:23.072Z,102824.45
2018-11-27T23:59:52.687Z,102829.55
